Ashland, MO

5:20 AM CDT on September 02, 2014 (GMT -0500)
Columbia Regional | Change Station
CLOSE
Current Station
Airport
Location: Columbia,
Elevation: 899 ft
Nearby Weather Stations
Active Advisory: Flash Flood Warning Active Notice: Record Report, Local Storm Report

Elev 899 ft 38.82 °N, 92.22 °W | Updated 26 minutes ago

Mostly Cloudy
Mostly Cloudy
69 °F
Feels Like 69 °F
N
4
Wind Variable Wind from SW

Today
High -- | Low -- °F
--% Chance of Precip.
Yesterday
High -- | Low -- °F
Precip. -- in
6:38 AM 7:37 PM
Waxing Crescent, 50% visible
Pressure 29.88 in
Visibility 10.0 miles
Clouds Few 3400 ft
Mostly Cloudy 4800 ft
Dew Point 68 °F
Humidity 96%
Rainfall 2.11 in
Snow Depth Not available.
UV 0 out of 12
Pollen 7.60 out of 12
Air Quality Not available.
Flu Activity Not available.
METAR KCOU 020954Z AUTO 23003KT 10SM FEW034 BKN048 21/20 A2991 RMK AO2 SLP118 T02060200 $

More Conditions Fewer Conditions

Pressure 29.88 in
Visibility 10.0 miles
Clouds Few 3400 ft
Mostly Cloudy 4800 ft
Dew Point 68 °F
Humidity 96%
Rainfall 2.11 in
Snow Depth Not available.
UV 0 out of 12
Pollen 7.60 out of 12
Air Quality Not available.
Flu Activity Not available.
METAR KCOU 020954Z AUTO 23003KT 10SM FEW034 BKN048 21/20 A2991 RMK AO2 SLP118 T02060200 $

More Conditions Fewer Conditions

10-Day Weather Forecast

Almanac

Astronomy

Sep. 02, 2014 Rise Set
Actual Time 6:38 AM CDT 7:37 PM CDT
Civil Twilight 6:11 AM CDT 8:04 PM CDT
Nautical Twilight 5:39 AM CDT 8:36 PM CDT
Astronomical Twilight 5:05 AM CDT 9:10 PM CDT
Moon 2:19 PM CDT No Moon Set
Length of Visible Light 13h 53m
Length of Day
12h 58m
Tomorrow will be 2m 26s shorter.
Waxing Crescent, 50% of the Moon is Illuminated
Today
Waxing Crescent
Sep 2
First Quarter
Sep 8
Full
Sep 15
Last Quarter
Sep 24
New

Today's Extremes

State Highs State Lows

Community

WunderPhotos

Upload Photos

1,749,611 photos uploaded!

WunderBlogs® & News

Nearby

Snow Depth

Station Depth Elevation
No new snow has been reported.

Earthquake Activity

City Distance Mag. Time & Date
No recent earthquake activity has been reported nearby.
Minimum magnitude displayed is 2.5.

Coastal Water Temperatures

Place Temperature
No Stations Reporting

Nearby Weather Stations